Groveland, MA (01834)

1:15 PM EDT on April 27, 2015 (GMT -0400)
Bradford MA | | Change Station
CLOSE
Current Station
Personal Weather Station
Location: Bradford MA, MA
Elevation: 167 ft
Nearby Weather Stations

Elev 167 ft 42.75 °N, 71.06 °W | Updated 4 seconds ago

Overcast
Overcast
55.6 °F
Feels Like 55.6 °F
N
4.0
Wind Variable Wind from NW
Gusts 12.0 mph

Today
High -- | Low -- °F
--% Chance of Precip.
Yesterday
High -- | Low -- °F
Precip. -- in
5:44 AM 7:39 PM
Waxing Gibbous, 66% visible
Pressure 29.56 in
Visibility 10.0 miles
Clouds Overcast 5500 ft
Dew Point 38 °F
Humidity 52%
Rainfall 0.00 in
Snow Depth Not available.
UV 3 out of 12
Pollen 9.20 out of 12
Air Quality Not available.
Flu Activity Widespread
METAR KLWM 271654Z 34012G18KT 10SM OVC055 14/02 A2955 RMK AO2 SLP008 T01390017

More Conditions Fewer Conditions

Pressure 29.56 in
Visibility 10.0 miles
Clouds Overcast 5500 ft
Dew Point 38 °F
Humidity 52%
Rainfall 0.00 in
Snow Depth Not available.
UV 3 out of 12
Pollen 9.20 out of 12
Air Quality Not available.
Flu Activity Widespread
METAR KLWM 271654Z 34012G18KT 10SM OVC055 14/02 A2955 RMK AO2 SLP008 T01390017

More Conditions Fewer Conditions

10-Day Weather Forecast

Almanac

Astronomy

Apr. 27, 2015 Rise Set
Actual Time
Civil Twilight
Nautical Twilight
Astronomical Twilight
Moon
Length of Visible Light
Length of Day
Tomorrow will be .
, % of the Moon is Illuminated

Today's Extremes

State Highs State Lows

Community

WunderPhotos

Upload Photos

1,817,346 photos uploaded!

WunderBlogs® & News

Nearby

Air Quality

  Air Quality AQ Index Pollutant
Not available.

Snow Depth

Station Depth Elevation

Earthquake Activity

City Distance Mag. Time & Date
Minimum magnitude displayed is 2.5.

Coastal Water Temperatures

Place Temperature

Stations

Nearby Weather Stations

Station Location Temp. Windchill Dew Point Humidity Wind Precip. Elev Updated Type